RORT(METAR)
08/13 14:00
RORT 130500Z 01007KT 9999 SCT020 32/27 Q1012 RMK A2989=
戻る
トップページへ戻る
IMOC Co,.Ltd.